Time;durP1;ratioP1;P1;durP2;ratioP2;P2;SDS_P1;SDS_P2;PMS_P1;PMS_P2;Temp;Humidity;BMP_temperature;BMP_pressure;BME280_temperature;BME280_humidity;BME280_pressure;Samples;Min_cycle;Max_cycle;Signal;HPM_P1;HPM_P2
2024/02/05 00:00:10;;;;;;;28.27;5.90;;;12.40;99.90;;;;;;5029356;28;20037;-76
2024/02/05 00:02:38;;;;;;;25.10;5.38;;;12.50;99.90;;;;;;5026336;28;20397;-76
2024/02/05 00:05:06;;;;;;;18.25;4.60;;;12.50;99.90;;;;;;5028411;28;20036;-76
2024/02/05 00:07:31;;;;;;;27.35;6.20;;;12.50;99.90;;;;;;5015600;28;20065;-76
2024/02/05 00:09:57;;;;;;;30.63;5.47;;;12.40;99.90;;;;;;5020114;28;20115;-76
2024/02/05 00:12:22;;;;;;;31.30;6.18;;;12.40;99.90;;;;;;5023407;28;20044;-76
2024/02/05 00:14:48;;;;;;;32.28;6.70;;;12.40;99.90;;;;;;5021273;28;20065;-76
2024/02/05 00:17:14;;;;;;;32.40;6.32;;;12.30;99.90;;;;;;5022663;28;20485;-77
2024/02/05 00:19:39;;;;;;;32.13;5.30;;;12.30;99.90;;;;;;5020973;28;20033;-76
2024/02/05 00:22:05;;;;;;;28.30;5.65;;;12.40;99.90;;;;;;5022380;28;20067;-77
2024/02/05 00:24:30;;;;;;;28.55;5.95;;;12.30;99.90;;;;;;5023573;28;20030;-77
2024/02/05 00:26:56;;;;;;;25.42;6.03;;;12.30;99.90;;;;;;5011623;28;20017;-77
2024/02/05 00:29:22;;;;;;;21.88;4.65;;;12.30;99.90;;;;;;5029516;28;20032;-76
2024/02/05 00:31:48;;;;;;;29.80;6.05;;;12.30;99.90;;;;;;5028856;28;20033;-77
2024/02/05 00:34:15;;;;;;;28.17;5.68;;;12.20;99.90;;;;;;5025622;28;20045;-76
2024/02/05 00:36:42;;;;;;;28.80;7.03;;;12.30;99.90;;;;;;5016334;28;20037;-77
2024/02/05 00:39:10;;;;;;;33.75;6.38;;;12.30;99.90;;;;;;5028270;28;20024;-77
2024/02/05 00:41:38;;;;;;;33.38;6.90;;;12.30;99.90;;;;;;5025825;28;20367;-76
2024/02/05 00:44:04;;;;;;;35.05;7.03;;;12.30;99.90;;;;;;5020414;28;20021;-76
2024/02/05 00:46:30;;;;;;;37.45;6.22;;;12.30;99.90;;;;;;5021961;28;20400;-76
2024/02/05 00:48:56;;;;;;;25.70;5.20;;;12.30;99.90;;;;;;5023361;28;20030;-76
2024/02/05 00:51:22;;;;;;;40.00;6.60;;;12.30;99.90;;;;;;5010145;28;20049;-76
2024/02/05 00:53:48;;;;;;;27.10;6.00;;;12.30;99.90;;;;;;5027139;28;20138;-76
2024/02/05 00:56:14;;;;;;;28.98;6.22;;;12.30;99.90;;;;;;5023469;28;20182;-76
2024/02/05 00:58:40;;;;;;;32.83;6.90;;;12.30;99.90;;;;;;5009991;28;20058;-77
2024/02/05 01:01:05;;;;;;;30.25;5.30;;;12.30;99.90;;;;;;5007486;28;20080;-76
2024/02/05 01:03:32;;;;;;;44.53;7.13;;;12.30;99.90;;;;;;5009499;28;20025;-76
2024/02/05 01:05:58;;;;;;;24.55;6.90;;;12.30;99.90;;;;;;5012598;28;20033;-76
2024/02/05 01:08:24;;;;;;;25.17;4.93;;;12.30;99.90;;;;;;5023733;28;20416;-76
2024/02/05 01:10:49;;;;;;;27.95;5.60;;;12.30;99.90;;;;;;5026968;28;20037;-76
2024/02/05 01:13:15;;;;;;;38.60;6.95;;;12.40;99.90;;;;;;5025661;28;20193;-76
2024/02/05 01:15:41;;;;;;;33.88;7.53;;;12.40;99.90;;;;;;5019593;28;20045;-76
2024/02/05 01:18:07;;;;;;;42.25;6.30;;;12.40;99.90;;;;;;5028214;28;20041;-76
2024/02/05 01:20:32;;;;;;;38.28;6.63;;;12.40;99.90;;;;;;5026731;28;20021;-76
2024/02/05 01:22:58;;;;;;;29.88;7.07;;;12.40;99.90;;;;;;5020790;28;20454;-74
2024/02/05 01:25:24;;;;;;;29.02;6.03;;;12.40;99.90;;;;;;5028599;28;20477;-76
2024/02/05 01:27:50;;;;;;;41.88;7.50;;;12.40;99.90;;;;;;5021859;28;20093;-76
2024/02/05 01:30:18;;;;;;;28.00;7.30;;;12.40;99.90;;;;;;5021449;28;20037;-76
2024/02/05 01:32:43;;;;;;;26.33;6.18;;;12.40;99.90;;;;;;5025337;28;20420;-76
2024/02/05 01:35:10;;;;;;;39.05;6.72;;;12.40;99.90;;;;;;5028359;28;20041;-76
2024/02/05 01:37:36;;;;;;;31.15;7.30;;;12.40;99.90;;;;;;5026348;28;20403;-75
2024/02/05 01:40:09;;;;;;;40.33;6.45;;;12.40;99.90;;;;;;5027488;28;20084;-76
2024/02/05 01:42:39;;;;;;;35.55;7.18;;;12.40;99.90;;;;;;5028701;28;20044;-76
2024/02/05 01:45:06;;;;;;;35.85;6.60;;;12.40;99.90;;;;;;5026663;28;20037;-76
2024/02/05 01:47:36;;;;;;;27.50;7.43;;;12.40;99.90;;;;;;5028505;28;20033;-75
2024/02/05 01:50:04;;;;;;;49.70;7.65;;;12.30;99.90;;;;;;5026443;28;20034;-75
2024/02/05 01:52:31;;;;;;;32.40;7.28;;;12.30;99.90;;;;;;5021235;28;20065;-76
2024/02/05 01:55:01;;;;;;;37.08;7.03;;;12.40;99.90;;;;;;5029877;28;20054;-76
2024/02/05 01:57:26;;;;;;;37.25;6.88;;;12.30;99.90;;;;;;5030576;28;20101;-76
2024/02/05 01:59:53;;;;;;;35.85;7.88;;;12.20;99.90;;;;;;5020021;28;20482;-76
2024/02/05 02:02:19;;;;;;;28.98;6.03;;;12.20;99.90;;;;;;5031175;28;20444;-76
2024/02/05 02:04:45;;;;;;;31.88;5.97;;;12.20;99.90;;;;;;5030596;28;20037;-76
2024/02/05 02:07:11;;;;;;;38.10;7.25;;;12.30;99.90;;;;;;5030778;28;20037;-76
2024/02/05 02:09:37;;;;;;;35.17;5.72;;;12.20;99.90;;;;;;5022275;28;20037;-75
2024/02/05 02:12:03;;;;;;;44.70;5.50;;;12.20;99.90;;;;;;5026937;28;20116;-76
2024/02/05 02:14:29;;;;;;;36.78;7.15;;;12.30;99.90;;;;;;5020834;28;20033;-76
2024/02/05 02:16:55;;;;;;;33.47;6.03;;;12.20;99.90;;;;;;5031574;28;20079;-76
2024/02/05 02:19:36;;;;;;;43.45;8.27;;;12.20;99.90;;;;;;5029940;28;20037;-76
2024/02/05 02:22:25;;;;;;;27.98;5.60;;;12.20;99.90;;;;;;5023983;28;20033;-75
2024/02/05 02:24:52;;;;;;;38.17;6.30;;;12.20;99.90;;;;;;5020226;28;20045;-76
2024/02/05 02:27:17;;;;;;;32.03;5.88;;;12.30;99.90;;;;;;5023733;28;20040;-76
2024/02/05 02:29:44;;;;;;;24.85;5.65;;;12.20;99.90;;;;;;5041526;28;20036;-76
2024/02/05 02:32:28;;;;;;;35.92;6.78;;;12.30;99.90;;;;;;5027114;28;20124;-76
2024/02/05 02:34:54;;;;;;;;;;;12.20;99.90;;;;;;5029279;28;20400;-75
2024/02/05 02:37:22;;;;;;;35.65;6.18;;;12.30;99.90;;;;;;5029896;28;19913;-76
2024/02/05 02:40:09;;;;;;;32.10;6.35;;;12.30;99.90;;;;;;5030061;28;20428;-76
2024/02/05 02:42:40;;;;;;;32.60;4.82;;;12.20;99.90;;;;;;5027546;28;20488;-76
2024/02/05 02:45:08;;;;;;;36.45;6.30;;;12.20;99.90;;;;;;5031743;28;20044;-76
2024/02/05 02:47:33;;;;;;;38.33;7.40;;;12.20;99.90;;;;;;5033331;28;20033;-76
2024/02/05 02:49:59;;;;;;;32.72;7.63;;;12.20;99.90;;;;;;5029783;28;20043;-76
2024/02/05 02:52:25;;;;;;;43.83;6.95;;;12.20;99.90;;;;;;5033812;28;20110;-76
2024/02/05 02:54:50;;;;;;;28.65;6.28;;;12.20;99.90;;;;;;5038114;28;20041;-76
2024/02/05 02:57:16;;;;;;;37.45;6.93;;;12.20;99.90;;;;;;5031951;28;20051;-76
2024/02/05 02:59:42;;;;;;;32.13;6.80;;;12.20;99.90;;;;;;5032739;28;20420;-76
2024/02/05 03:02:07;;;;;;;46.38;8.23;;;12.20;99.90;;;;;;5030431;28;20087;-76
2024/02/05 03:04:33;;;;;;;33.58;6.93;;;12.10;99.90;;;;;;5030536;28;20026;-76
2024/02/05 03:06:59;;;;;;;28.65;6.47;;;12.10;99.90;;;;;;5040485;28;20025;-76
2024/02/05 03:09:24;;;;;;;32.58;5.80;;;12.10;99.90;;;;;;5045122;28;20032;-76
2024/02/05 03:11:50;;;;;;;42.10;7.88;;;12.20;99.90;;;;;;5049343;28;20396;-75
2024/02/05 03:14:15;;;;;;;36.75;5.93;;;12.10;99.90;;;;;;5029739;28;20033;-76
2024/02/05 03:16:41;;;;;;;28.40;6.38;;;12.10;99.90;;;;;;5030802;28;20045;-76
2024/02/05 03:19:06;;;;;;;38.25;8.05;;;12.10;99.90;;;;;;5042228;28;20611;-76
2024/02/05 03:21:32;;;;;;;44.38;7.22;;;12.10;99.90;;;;;;5030977;28;20025;-76
2024/02/05 03:23:58;;;;;;;40.72;7.07;;;12.00;99.90;;;;;;5020663;28;20021;-76
2024/02/05 03:26:23;;;;;;;28.25;6.60;;;12.00;99.90;;;;;;5037776;28;20037;-76
2024/02/05 03:28:49;;;;;;;33.95;5.95;;;12.00;99.90;;;;;;5027519;28;20033;-75
2024/02/05 03:31:14;;;;;;;29.80;7.05;;;12.00;99.90;;;;;;5040754;28;20037;-76
2024/02/05 03:33:40;;;;;;;24.33;5.88;;;12.00;99.90;;;;;;5038071;28;20037;-76
2024/02/05 03:36:06;;;;;;;39.58;8.63;;;12.00;99.90;;;;;;5025416;28;20392;-75
2024/02/05 03:38:34;;;;;;;32.85;8.10;;;12.00;99.90;;;;;;5030730;28;20112;-76
2024/02/05 03:41:00;;;;;;;42.45;9.27;;;11.90;99.90;;;;;;5032711;28;20654;-76
2024/02/05 03:43:25;;;;;;;39.90;5.95;;;11.80;99.90;;;;;;5037267;28;20038;-76
2024/02/05 03:45:51;;;;;;;33.25;7.55;;;11.80;99.90;;;;;;5042017;28;20044;-76
2024/02/05 03:48:19;;;;;;;30.65;6.60;;;11.80;99.90;;;;;;5039253;28;20040;-75
2024/02/05 03:50:45;;;;;;;40.38;7.90;;;11.80;99.90;;;;;;5040904;28;20044;-75
2024/02/05 03:53:10;;;;;;;38.72;8.60;;;11.80;99.90;;;;;;5029239;28;20381;-76
2024/02/05 03:55:36;;;;;;;42.83;7.28;;;11.80;99.90;;;;;;5027781;28;20060;-76
2024/02/05 03:58:03;;;;;;;31.88;7.43;;;11.80;99.90;;;;;;5029250;28;20088;-75
2024/02/05 04:00:30;;;;;;;39.58;8.45;;;11.70;99.90;;;;;;5032950;28;20082;-75
2024/02/05 04:02:56;;;;;;;31.15;6.00;;;11.70;99.90;;;;;;5032898;28;20033;-75
2024/02/05 04:05:22;;;;;;;33.35;7.15;;;11.80;99.90;;;;;;5029971;28;20044;-75
2024/02/05 04:07:47;;;;;;;38.13;7.22;;;11.60;99.90;;;;;;5036249;28;20037;-76
2024/02/05 04:10:13;;;;;;;40.75;7.13;;;11.70;99.90;;;;;;5032425;28;20120;-76
2024/02/05 04:12:39;;;;;;;40.22;7.85;;;11.60;99.90;;;;;;5028406;28;20381;-75
2024/02/05 04:15:07;;;;;;;40.10;8.38;;;11.70;99.90;;;;;;5035256;28;20021;-76
2024/02/05 04:17:32;;;;;;;31.70;7.28;;;11.60;99.90;;;;;;5024511;28;20152;-76
2024/02/05 04:19:58;;;;;;;27.30;6.78;;;11.60;99.90;;;;;;5028225;28;20120;-76
2024/02/05 04:22:24;;;;;;;39.80;7.57;;;11.60;99.90;;;;;;5031852;28;20022;-76
2024/02/05 04:24:49;;;;;;;33.22;7.25;;;11.60;99.90;;;;;;5046030;28;20675;-76
2024/02/05 04:27:15;;;;;;;37.72;7.47;;;11.70;99.90;;;;;;5038957;28;20604;-75
2024/02/05 04:29:41;;;;;;;31.55;6.93;;;11.70;99.90;;;;;;5029862;28;20045;-78
2024/02/05 04:32:07;;;;;;;37.53;7.80;;;11.60;99.90;;;;;;5029518;28;20400;-76
2024/02/05 04:34:32;;;;;;;31.65;5.95;;;11.60;99.90;;;;;;5025815;28;20076;-76
2024/02/05 04:37:01;;;;;;;28.75;7.55;;;11.70;99.90;;;;;;5034413;28;20408;-76
2024/02/05 04:39:26;;;;;;;36.65;6.32;;;11.70;99.90;;;;;;5029012;28;20029;-75
2024/02/05 04:41:52;;;;;;;32.20;6.07;;;11.60;99.90;;;;;;5027631;28;20417;-76
2024/02/05 04:44:18;;;;;;;34.70;7.03;;;11.60;99.90;;;;;;5025201;28;20184;-76
2024/02/05 04:46:44;;;;;;;30.15;6.40;;;11.60;99.90;;;;;;5028766;28;20044;-75
2024/02/05 04:49:10;;;;;;;50.20;7.32;;;11.70;99.90;;;;;;5024745;28;20095;-76
2024/02/05 04:51:36;;;;;;;32.47;7.32;;;11.60;99.90;;;;;;5028100;28;20025;-76
2024/02/05 04:54:02;;;;;;;24.10;5.07;;;11.60;99.90;;;;;;5028373;28;20053;-75
2024/02/05 04:56:28;;;;;;;31.27;7.18;;;11.60;99.90;;;;;;5029301;28;20068;-75
2024/02/05 04:58:54;;;;;;;42.33;7.43;;;11.50;99.90;;;;;;5043594;28;20468;-76
2024/02/05 05:01:19;;;;;;;35.28;8.40;;;11.50;99.90;;;;;;5035472;28;20033;-75
2024/02/05 05:03:45;;;;;;;36.03;7.38;;;11.40;99.90;;;;;;5024928;28;20025;-75
2024/02/05 05:06:10;;;;;;;38.28;6.97;;;11.50;99.90;;;;;;5032343;28;20115;-75
2024/02/05 05:08:36;;;;;;;38.20;7.45;;;11.50;99.90;;;;;;5040532;28;20475;-76
2024/02/05 05:11:02;;;;;;;32.65;6.90;;;11.50;99.90;;;;;;5018733;28;20037;-76
2024/02/05 05:13:28;;;;;;;43.10;8.50;;;11.40;99.90;;;;;;5030880;28;20075;-76
2024/02/05 05:15:57;;;;;;;25.85;6.32;;;11.40;99.90;;;;;;5029097;28;20041;-76
2024/02/05 05:18:23;;;;;;;39.22;7.75;;;11.50;99.90;;;;;;5029430;28;20461;-75
2024/02/05 05:20:49;;;;;;;43.00;9.50;;;11.50;99.90;;;;;;5027640;28;20114;-75
2024/02/05 05:23:17;;;;;;;42.95;8.68;;;11.40;99.90;;;;;;5028411;28;20037;-75
2024/02/05 05:25:43;;;;;;;32.42;8.13;;;11.30;99.90;;;;;;5029874;28;20346;-76
2024/02/05 05:28:08;;;;;;;36.22;7.28;;;11.40;99.90;;;;;;5031087;28;20060;-76
2024/02/05 05:30:34;;;;;;;41.10;8.93;;;11.40;99.90;;;;;;5034194;28;20036;-75
2024/02/05 05:33:00;;;;;;;37.75;7.28;;;11.40;99.90;;;;;;5035268;28;20083;-76
2024/02/05 05:35:26;;;;;;;33.80;7.57;;;11.30;99.90;;;;;;5031131;28;20484;-76
2024/02/05 05:37:51;;;;;;;36.72;8.35;;;11.30;99.90;;;;;;5033894;28;20175;-75
2024/02/05 05:40:17;;;;;;;39.40;8.15;;;11.30;99.90;;;;;;5031281;28;20432;-76
2024/02/05 05:42:43;;;;;;;35.63;7.47;;;11.40;99.90;;;;;;5033178;28;20044;-75
2024/02/05 05:45:08;;;;;;;32.78;7.78;;;11.50;99.90;;;;;;5035987;28;20040;-75
2024/02/05 05:47:34;;;;;;;40.17;7.57;;;11.50;99.90;;;;;;5027023;28;20464;-75
2024/02/05 05:50:00;;;;;;;31.15;6.78;;;11.50;99.90;;;;;;5036344;28;20055;-75
2024/02/05 05:52:27;;;;;;;36.58;8.27;;;11.60;99.90;;;;;;5027368;28;20041;-76
2024/02/05 05:54:53;;;;;;;32.75;7.20;;;11.60;99.90;;;;;;5036022;28;20049;-75
2024/02/05 05:57:19;;;;;;;38.10;7.97;;;11.50;99.90;;;;;;5041605;28;20048;-75
2024/02/05 05:59:44;;;;;;;40.25;8.60;;;11.40;99.90;;;;;;5039459;28;20576;-77
2024/02/05 06:02:10;;;;;;;45.55;8.85;;;11.50;99.90;;;;;;5031333;28;20599;-74
2024/02/05 06:04:36;;;;;;;21.08;5.82;;;11.40;99.90;;;;;;5034393;28;20036;-75
2024/02/05 06:07:06;;;;;;;31.17;7.10;;;11.50;99.90;;;;;;5036808;28;20107;-75
2024/02/05 06:09:32;;;;;;;30.13;4.85;;;11.50;99.90;;;;;;5031300;28;20030;-75
2024/02/05 06:11:58;;;;;;;27.60;5.93;;;11.60;99.90;;;;;;5033719;28;20021;-75
2024/02/05 06:14:23;;;;;;;29.38;7.05;;;11.50;99.90;;;;;;5039699;28;20419;-75
2024/02/05 06:16:49;;;;;;;26.77;6.47;;;11.60;99.90;;;;;;5035705;28;20488;-75
2024/02/05 06:19:14;;;;;;;35.45;7.45;;;11.60;99.90;;;;;;5035778;28;20485;-75
2024/02/05 06:21:40;;;;;;;37.10;7.28;;;11.50;99.90;;;;;;5037180;28;20476;-75
2024/02/05 06:24:06;;;;;;;44.78;7.97;;;11.50;99.90;;;;;;5032082;28;20053;-75
2024/02/05 06:26:34;;;;;;;20.52;6.57;;;11.50;99.90;;;;;;5036911;28;20052;-75
2024/02/05 06:29:00;;;;;;;41.17;8.88;;;11.50;99.90;;;;;;5031005;28;20068;-74
2024/02/05 06:31:25;;;;;;;33.67;6.50;;;11.50;99.90;;;;;;5041583;28;20052;-75
2024/02/05 06:33:51;;;;;;;57.60;8.45;;;11.50;99.90;;;;;;5036576;28;21378;-75
2024/02/05 06:36:17;;;;;;;39.55;8.60;;;11.50;99.90;;;;;;5035159;28;20069;-75
2024/02/05 06:38:43;;;;;;;42.30;8.23;;;11.50;99.90;;;;;;5029969;28;20033;-75
2024/02/05 06:41:08;;;;;;;37.67;7.45;;;11.50;99.90;;;;;;5027299;28;20045;-74
2024/02/05 06:43:35;;;;;;;43.67;7.60;;;11.40;99.90;;;;;;5031094;28;20033;-74
2024/02/05 06:46:02;;;;;;;38.67;7.82;;;11.50;99.90;;;;;;5027664;28;20478;-75
2024/02/05 06:48:31;;;;;;;40.30;6.78;;;11.50;99.90;;;;;;5036866;28;20029;-74
2024/02/05 06:50:57;;;;;;;33.53;7.38;;;11.50;99.90;;;;;;5026671;28;20477;-75
2024/02/05 06:53:22;;;;;;;23.58;4.93;;;11.50;99.90;;;;;;5029331;28;20025;-75
2024/02/05 06:55:48;;;;;;;42.53;8.02;;;11.50;99.90;;;;;;5040894;28;20043;-75
2024/02/05 06:58:14;;;;;;;38.88;7.65;;;11.50;99.90;;;;;;5032724;28;20030;-74
2024/02/05 07:00:42;;;;;;;39.00;7.57;;;11.40;99.90;;;;;;5039191;28;20043;-75
2024/02/05 07:03:08;;;;;;;31.15;7.47;;;11.40;99.90;;;;;;5033852;28;20036;-74
2024/02/05 07:05:33;;;;;;;38.33;8.30;;;11.30;99.90;;;;;;5031252;28;20034;-76
2024/02/05 07:08:03;;;;;;;32.38;7.43;;;11.20;99.90;;;;;;5031916;28;20026;-73
2024/02/05 07:10:28;;;;;;;32.05;9.02;;;11.20;99.90;;;;;;5035522;28;20036;-74
2024/02/05 07:12:54;;;;;;;39.63;7.68;;;11.20;99.90;;;;;;5033573;28;20489;-74
2024/02/05 07:15:19;;;;;;;38.72;7.65;;;11.20;99.90;;;;;;5028483;28;20034;-74
2024/02/05 07:17:45;;;;;;;34.38;8.00;;;11.20;99.90;;;;;;5029819;28;20030;-73
2024/02/05 07:20:11;;;;;;;41.80;8.18;;;11.10;99.90;;;;;;5030929;28;20755;-74
2024/02/05 07:22:37;;;;;;;34.28;7.55;;;11.20;99.90;;;;;;5028882;28;20068;-73
2024/02/05 07:25:03;;;;;;;34.60;8.30;;;11.20;99.90;;;;;;5028551;28;20076;-74
2024/02/05 07:27:29;;;;;;;40.80;8.55;;;11.20;99.90;;;;;;5028139;28;20025;-78
2024/02/05 07:29:55;;;;;;;31.65;7.65;;;11.10;99.90;;;;;;5029599;28;20053;-77
2024/02/05 07:32:20;;;;;;;31.00;7.43;;;11.10;99.90;;;;;;5035941;28;20083;-78
2024/02/05 07:34:47;;;;;;;33.85;7.28;;;11.10;99.90;;;;;;5031847;28;20033;-75
2024/02/05 07:37:13;;;;;;;28.88;6.45;;;11.10;99.90;;;;;;5039251;28;20061;-75
2024/02/05 07:39:39;;;;;;;32.05;8.27;;;11.20;99.90;;;;;;5032283;28;21067;-75
2024/02/05 07:42:05;;;;;;;38.45;8.20;;;11.10;99.90;;;;;;5029706;28;20040;-75
2024/02/05 07:44:31;;;;;;;36.92;8.55;;;11.10;99.90;;;;;;5030793;28;20129;-74
2024/02/05 07:46:57;;;;;;;35.53;7.60;;;11.10;99.90;;;;;;5028589;28;20456;-76
2024/02/05 07:49:24;;;;;;;23.85;6.82;;;11.10;99.90;;;;;;5027966;28;20037;-76
2024/02/05 07:51:50;;;;;;;27.85;6.63;;;11.10;99.90;;;;;;5029019;28;20029;-76
2024/02/05 07:54:16;;;;;;;28.60;7.10;;;11.20;99.90;;;;;;5040081;28;20156;-76
2024/02/05 07:56:42;;;;;;;29.75;7.63;;;11.20;99.90;;;;;;5029297;28;20481;-76
2024/02/05 07:59:11;;;;;;;38.72;8.45;;;11.10;99.90;;;;;;5039598;28;20075;-76
2024/02/05 08:01:38;;;;;;;36.53;7.80;;;11.10;99.90;;;;;;5036723;28;20032;-76
2024/02/05 08:04:04;;;;;;;26.55;6.88;;;11.10;99.90;;;;;;5017734;28;20485;-76
2024/02/05 08:06:30;;;;;;;30.40;6.68;;;11.10;99.90;;;;;;5045165;28;20063;-77
2024/02/05 08:09:04;;;;;;;30.13;7.00;;;11.20;99.90;;;;;;5031767;28;20034;-76
2024/02/05 08:11:30;;;;;;;34.67;6.90;;;11.10;99.90;;;;;;5022497;28;20117;-76
2024/02/05 08:13:56;;;;;;;35.33;6.35;;;11.10;99.90;;;;;;5043539;28;20064;-76
2024/02/05 08:16:22;;;;;;;31.23;7.60;;;11.10;99.90;;;;;;5045768;28;20132;-76
2024/02/05 08:18:48;;;;;;;23.00;6.28;;;11.00;99.90;;;;;;5042734;28;20083;-76
2024/02/05 08:21:13;;;;;;;33.80;6.55;;;11.00;99.90;;;;;;5039167;28;20037;-77
2024/02/05 08:23:39;;;;;;;29.67;6.85;;;11.00;99.90;;;;;;5031371;28;20529;-76
2024/02/05 08:26:06;;;;;;;36.42;7.13;;;11.00;99.90;;;;;;5031691;28;20033;-76
2024/02/05 08:28:32;;;;;;;26.42;7.22;;;11.00;99.90;;;;;;5031400;28;20029;-76
2024/02/05 08:30:58;;;;;;;35.90;6.68;;;11.00;99.90;;;;;;5020856;28;20037;-76
2024/02/05 08:33:24;;;;;;;30.88;7.10;;;10.90;99.90;;;;;;5033948;28;20038;-76
2024/02/05 08:35:51;;;;;;;33.22;6.72;;;10.90;99.90;;;;;;5027440;28;20128;-76
2024/02/05 08:38:16;;;;;;;33.85;6.57;;;10.90;99.90;;;;;;5027737;28;20536;-76
2024/02/05 08:40:43;;;;;;;34.47;5.82;;;10.90;99.90;;;;;;5033725;28;20112;-76
2024/02/05 08:43:09;;;;;;;29.15;7.88;;;11.00;99.90;;;;;;5024903;28;20021;-76
2024/02/05 08:45:34;;;;;;;29.15;6.93;;;11.00;99.90;;;;;;5022012;28;20115;-76
2024/02/05 08:48:05;;;;;;;34.88;6.13;;;10.90;99.90;;;;;;5027157;28;20389;-76
2024/02/05 08:50:35;;;;;;;33.55;6.38;;;10.90;99.90;;;;;;5029141;28;20041;-76
2024/02/05 08:53:02;;;;;;;35.53;6.70;;;10.90;99.90;;;;;;5026122;28;20029;-77
2024/02/05 08:55:28;;;;;;;33.70;6.20;;;11.00;99.90;;;;;;5028729;28;20132;-77
2024/02/05 08:57:53;;;;;;;29.25;7.78;;;11.00;99.90;;;;;;5031046;28;20140;-77
2024/02/05 09:00:19;;;;;;;20.10;6.15;;;10.90;99.90;;;;;;5035938;28;20029;-77
2024/02/05 09:02:48;;;;;;;31.63;6.32;;;10.90;99.90;;;;;;5028494;28;20844;-77
2024/02/05 09:05:14;;;;;;;36.47;7.72;;;11.00;99.90;;;;;;5028059;28;20385;-76
2024/02/05 09:07:40;;;;;;;28.17;6.40;;;11.00;99.90;;;;;;5027483;28;20044;-76
2024/02/05 09:10:07;;;;;;;25.45;6.03;;;11.00;99.90;;;;;;5036511;28;20036;-76
2024/02/05 09:12:33;;;;;;;31.27;8.27;;;11.00;99.90;;;;;;5028857;28;20434;-76
2024/02/05 09:14:59;;;;;;;33.40;7.22;;;11.00;99.90;;;;;;5028897;28;20031;-77
2024/02/05 09:17:25;;;;;;;34.53;7.28;;;11.00;99.90;;;;;;5030467;28;20064;-76
2024/02/05 09:19:50;;;;;;;42.67;6.82;;;11.00;99.90;;;;;;5025938;28;20544;-76
2024/02/05 09:22:16;;;;;;;28.73;7.22;;;11.00;99.90;;;;;;5027755;28;20418;-77
2024/02/05 09:24:41;;;;;;;34.25;6.15;;;11.00;99.90;;;;;;5031970;28;20034;-77
2024/02/05 09:27:07;;;;;;;27.05;6.43;;;11.00;99.90;;;;;;5030263;28;20052;-77
2024/02/05 09:29:33;;;;;;;33.92;6.78;;;11.10;99.90;;;;;;5032632;28;20030;-77
2024/02/05 09:31:58;;;;;;;27.98;6.93;;;11.10;99.90;;;;;;5030453;28;20045;-77
2024/02/05 09:34:24;;;;;;;32.03;7.13;;;11.10;99.90;;;;;;5018673;28;20025;-76
2024/02/05 09:36:50;;;;;;;35.15;7.82;;;11.00;99.90;;;;;;5028112;28;20115;-76
2024/02/05 09:39:16;;;;;;;34.60;8.02;;;11.00;99.90;;;;;;5040611;28;20160;-76
2024/02/05 09:41:42;;;;;;;28.58;5.60;;;11.00;99.90;;;;;;5026112;28;20788;-76
2024/02/05 09:44:10;;;;;;;32.78;6.72;;;11.00;99.90;;;;;;5045863;28;20107;-76
2024/02/05 09:46:38;;;;;;;30.60;6.93;;;11.10;99.90;;;;;;5045067;28;20029;-76
2024/02/05 09:49:04;;;;;;;35.63;7.68;;;11.20;99.90;;;;;;5045664;28;20040;-76
2024/02/05 09:51:32;;;;;;;22.70;6.35;;;11.20;99.90;;;;;;5044447;28;20549;-78
2024/02/05 09:53:57;;;;;;;30.10;7.22;;;11.20;99.90;;;;;;5034294;28;20053;-76
2024/02/05 09:56:25;;;;;;;39.45;8.30;;;11.10;99.90;;;;;;5041763;28;20052;-77
2024/02/05 09:58:51;;;;;;;33.45;6.82;;;11.20;99.90;;;;;;5021897;28;20031;-77
2024/02/05 10:01:19;;;;;;;23.35;5.90;;;11.20;99.90;;;;;;5032119;28;20036;-77
2024/02/05 10:03:50;;;;;;;33.65;6.72;;;11.30;99.90;;;;;;5029181;28;20389;-78
2024/02/05 10:06:18;;;;;;;27.30;5.95;;;11.30;99.90;;;;;;5036195;28;20029;-78
2024/02/05 10:08:47;;;;;;;40.33;6.45;;;11.30;99.90;;;;;;5046156;28;20111;-78
2024/02/05 10:11:14;;;;;;;33.15;6.25;;;11.20;99.90;;;;;;5015445;28;20040;-77
2024/02/05 10:13:39;;;;;;;31.27;7.50;;;11.30;99.90;;;;;;5027821;28;20033;-78
2024/02/05 10:16:05;;;;;;;17.60;5.70;;;11.20;99.90;;;;;;5041441;28;20045;-81
2024/02/05 10:18:31;;;;;;;24.88;7.03;;;11.10;99.90;;;;;;5032160;28;20033;-77
2024/02/05 10:20:59;;;;;;;32.05;7.10;;;11.10;99.90;;;;;;5038857;28;20103;-78
2024/02/05 10:23:25;;;;;;;32.58;6.85;;;11.10;99.90;;;;;;5037849;28;20040;-77
2024/02/05 10:25:51;;;;;;;26.20;6.65;;;11.10;99.90;;;;;;5036668;28;20424;-78
2024/02/05 10:28:20;;;;;;;32.30;7.45;;;11.10;99.90;;;;;;5037705;28;20033;-78
2024/02/05 10:30:45;;;;;;;23.80;5.35;;;11.10;99.90;;;;;;5029286;28;20057;-79
2024/02/05 10:33:11;;;;;;;28.63;6.00;;;11.10;99.90;;;;;;5037977;28;20082;-80
2024/02/05 10:35:39;;;;;;;25.90;6.35;;;11.10;99.90;;;;;;5034964;28;20492;-93
2024/02/05 10:38:09;;;;;;;22.23;5.80;;;11.10;99.90;;;;;;5032509;28;20033;-78
2024/02/05 10:40:35;;;;;;;26.63;6.22;;;11.10;99.90;;;;;;5037355;28;20025;-77
2024/02/05 10:43:03;;;;;;;24.13;7.20;;;11.20;99.90;;;;;;5040202;28;20033;-77
2024/02/05 10:45:30;;;;;;;27.70;6.82;;;11.10;99.90;;;;;;5026234;28;20065;-77
2024/02/05 10:47:56;;;;;;;25.60;7.07;;;11.00;99.90;;;;;;5040933;28;20043;-77
2024/02/05 10:50:22;;;;;;;31.92;5.30;;;11.10;99.90;;;;;;5031393;28;20116;-76
2024/02/05 10:52:50;;;;;;;17.38;5.28;;;11.20;99.90;;;;;;5030738;28;20163;-77
2024/02/05 10:55:16;;;;;;;16.90;4.80;;;11.10;99.90;;;;;;5029066;28;20132;-77
2024/02/05 10:57:43;;;;;;;21.45;6.72;;;11.20;99.90;;;;;;5037919;28;20112;-77
2024/02/05 11:00:09;;;;;;;23.52;5.55;;;11.20;99.90;;;;;;5037394;28;20029;-77
2024/02/05 11:02:40;;;;;;;30.55;6.50;;;11.20;99.90;;;;;;5030461;28;20033;-77
2024/02/05 11:05:10;;;;;;;18.58;5.72;;;11.20;99.90;;;;;;5039609;28;20037;-77
2024/02/05 11:07:46;;;;;;;25.38;5.18;;;11.30;99.90;;;;;;5034446;28;20036;-77
2024/02/05 11:10:13;;;;;;;17.55;5.30;;;11.30;99.90;;;;;;5049023;28;20029;-77
2024/02/05 11:12:41;;;;;;;26.30;5.70;;;11.30;99.90;;;;;;5033784;28;20029;-77
2024/02/05 11:15:10;;;;;;;29.17;6.05;;;11.20;99.90;;;;;;5047643;28;20037;-77
2024/02/05 11:17:37;;;;;;;30.77;6.38;;;11.30;99.90;;;;;;5031078;28;20038;-77
2024/02/05 11:20:07;;;;;;;26.17;6.38;;;11.30;99.90;;;;;;5030333;28;20041;-77
2024/02/05 11:22:34;;;;;;;23.02;4.93;;;11.30;99.90;;;;;;5029536;28;20034;-77
2024/02/05 11:25:00;;;;;;;25.40;5.85;;;11.30;99.90;;;;;;5032313;28;20030;-77
2024/02/05 11:27:26;;;;;;;18.00;5.15;;;11.20;99.90;;;;;;5028425;28;20125;-77
2024/02/05 11:29:51;;;;;;;21.10;5.90;;;11.10;99.90;;;;;;5030326;28;20045;-79
2024/02/05 11:32:17;;;;;;;22.65;6.53;;;11.20;99.90;;;;;;5032048;28;20036;-76
2024/02/05 11:34:44;;;;;;;28.75;6.32;;;11.20;99.80;;;;;;5030443;28;20112;-75
2024/02/05 11:37:21;;;;;;;26.33;5.90;;;11.20;99.90;;;;;;5031986;28;20484;-77
2024/02/05 11:39:47;;;;;;;10.73;3.47;;;11.20;99.80;;;;;;5036375;28;20108;-77
2024/02/05 11:42:17;;;;;;;21.05;4.80;;;11.40;99.90;;;;;;5032572;28;20224;-77
2024/02/05 11:44:43;;;;;;;25.80;5.68;;;11.30;99.70;;;;;;5036931;28;20032;-77
2024/02/05 11:47:11;;;;;;;19.27;5.18;;;11.30;99.60;;;;;;5031912;28;20032;-77
2024/02/05 11:49:37;;;;;;;26.05;5.85;;;11.20;99.70;;;;;;5027471;28;20515;-76
2024/02/05 11:52:03;;;;;;;25.55;6.15;;;11.10;99.80;;;;;;5016628;28;20086;-79
2024/02/05 11:54:30;;;;;;;25.98;5.70;;;11.20;99.80;;;;;;5029487;28;20140;-78
2024/02/05 11:56:56;;;;;;;25.75;6.47;;;11.20;99.80;;;;;;5027465;28;20519;-77
2024/02/05 11:59:22;;;;;;;29.70;5.80;;;11.20;99.90;;;;;;5037027;28;20475;-76
2024/02/05 12:01:48;;;;;;;19.83;5.75;;;11.20;99.90;;;;;;5030863;28;20053;-76
2024/02/05 12:04:14;;;;;;;21.05;5.32;;;11.20;99.80;;;;;;5035319;28;20068;-77
2024/02/05 12:06:41;;;;;;;23.80;5.18;;;11.20;99.90;;;;;;5018864;28;20724;-78
2024/02/05 12:09:07;;;;;;;19.48;5.18;;;11.20;99.90;;;;;;5020567;28;20026;-78
2024/02/05 12:11:36;;;;;;;23.73;5.30;;;11.20;99.90;;;;;;5018751;28;20807;-77
2024/02/05 12:14:03;;;;;;;23.98;6.15;;;11.10;99.80;;;;;;5029280;28;20477;-77
2024/02/05 12:16:32;;;;;;;20.10;4.78;;;11.10;99.90;;;;;;5018713;28;20124;-77
2024/02/05 12:18:57;;;;;;;22.67;5.45;;;11.10;99.90;;;;;;5040323;28;20026;-79
2024/02/05 12:21:28;;;;;;;21.80;5.32;;;11.20;99.90;;;;;;5025052;28;20120;-79
2024/02/05 12:23:54;;;;;;;19.45;5.25;;;11.20;99.90;;;;;;5033169;28;20068;-79
2024/02/05 12:26:19;;;;;;;26.85;5.97;;;11.30;99.80;;;;;;5026901;28;20061;-80
2024/02/05 12:28:51;;;;;;;21.80;5.60;;;11.30;99.70;;;;;;5030634;28;20033;-82
2024/02/05 12:31:23;;;;;;;23.13;5.97;;;11.30;99.70;;;;;;5032420;28;20133;-77
2024/02/05 12:34:01;;;;;;;31.77;5.50;;;11.30;99.60;;;;;;5032221;28;20044;-82